createdAt,value
2018-02-13T00:00:06.349Z,82.10
2018-02-13T00:01:08.944Z,82.10
2018-02-13T00:02:06.669Z,82.10
2018-02-13T00:03:06.256Z,82.10
2018-02-13T00:04:05.552Z,82.10
2018-02-13T00:05:06.643Z,82.10
2018-02-13T00:06:06.585Z,82.10
2018-02-13T00:07:05.859Z,82.10
2018-02-13T00:08:05.903Z,82.10
2018-02-13T00:09:11.073Z,82.00
2018-02-13T00:10:06.854Z,82.00
2018-02-13T00:11:05.956Z,82.00
2018-02-13T00:12:11.493Z,82.00
2018-02-13T00:13:05.900Z,82.00
2018-02-13T00:14:08.705Z,82.10
2018-02-13T00:15:10.541Z,82.00
2018-02-13T00:16:06.232Z,81.90
2018-02-13T00:17:05.654Z,82.00
2018-02-13T00:18:06.221Z,82.00
2018-02-13T00:19:06.117Z,82.10
2018-02-13T00:20:06.608Z,81.90
2018-02-13T00:21:16.280Z,81.90
2018-02-13T00:22:08.835Z,81.90
2018-02-13T00:23:06.482Z,81.90
2018-02-13T00:24:05.795Z,81.90
2018-02-13T00:25:06.428Z,81.90
2018-02-13T00:26:08.808Z,81.90
2018-02-13T00:27:06.405Z,81.90
2018-02-13T00:28:06.102Z,81.90
2018-02-13T00:29:06.116Z,81.90
2018-02-13T00:30:08.154Z,81.90
2018-02-13T00:31:05.609Z,81.90
2018-02-13T00:32:11.234Z,81.90
2018-02-13T00:33:05.706Z,81.90
2018-02-13T00:34:06.745Z,81.90
2018-02-13T00:35:05.481Z,81.80
2018-02-13T00:36:05.703Z,81.70
2018-02-13T00:37:10.605Z,81.70
2018-02-13T00:38:08.429Z,81.70
2018-02-13T00:39:08.555Z,81.60
2018-02-13T00:40:08.615Z,81.60
2018-02-13T00:41:06.112Z,81.50
2018-02-13T00:42:06.290Z,81.60
2018-02-13T00:43:05.740Z,81.40
2018-02-13T00:44:11.081Z,81.40
2018-02-13T00:45:06.343Z,81.50
2018-02-13T00:46:05.887Z,81.50
2018-02-13T00:47:08.293Z,81.60
2018-02-13T00:48:08.342Z,81.60
2018-02-13T00:49:06.049Z,81.60
2018-02-13T00:50:05.992Z,81.70
2018-02-13T00:51:05.572Z,81.70
2018-02-13T00:52:06.024Z,81.80
2018-02-13T00:53:06.666Z,81.80
2018-02-13T00:54:05.801Z,81.90
2018-02-13T00:55:06.545Z,81.80
2018-02-13T00:56:08.129Z,81.90
2018-02-13T00:57:09.032Z,81.90
2018-02-13T00:58:05.538Z,81.90
2018-02-13T00:59:11.043Z,81.90
2018-02-13T01:00:07.994Z,81.90
2018-02-13T01:01:05.517Z,81.90
2018-02-13T01:02:05.824Z,81.90
2018-02-13T01:03:11.091Z,81.90
2018-02-13T01:04:06.609Z,81.90
2018-02-13T01:05:09.687Z,81.80
2018-02-13T01:06:06.236Z,81.90
2018-02-13T01:07:11.357Z,81.90
2018-02-13T01:08:06.016Z,81.90
2018-02-13T01:09:06.437Z,81.90
2018-02-13T01:10:06.039Z,81.80
2018-02-13T01:11:05.778Z,81.70
2018-02-13T01:12:06.410Z,81.60
2018-02-13T01:13:09.514Z,81.70
2018-02-13T01:14:06.467Z,81.70
2018-02-13T01:15:05.682Z,81.70
2018-02-13T01:16:08.756Z,81.80
2018-02-13T01:17:06.275Z,81.80
2018-02-13T01:18:06.004Z,81.80
2018-02-13T01:19:06.397Z,81.80
2018-02-13T01:20:08.091Z,81.80
2018-02-13T01:21:08.160Z,81.70
2018-02-13T01:22:08.413Z,81.70
2018-02-13T01:23:06.073Z,81.80
2018-02-13T01:24:08.834Z,81.90
2018-02-13T01:25:06.743Z,81.90
2018-02-13T01:26:11.221Z,81.90
2018-02-13T01:27:10.689Z,82.10
2018-02-13T01:28:05.922Z,81.90
2018-02-13T01:29:05.445Z,82.10
2018-02-13T01:30:05.776Z,82.10
2018-02-13T01:31:08.985Z,82.10
2018-02-13T01:32:08.160Z,82.10
2018-02-13T01:33:12.009Z,82.20
2018-02-13T01:34:08.912Z,82.20
2018-02-13T01:35:06.443Z,82.20
2018-02-13T01:36:06.424Z,82.20
2018-02-13T01:37:11.113Z,82.20
2018-02-13T01:38:05.588Z,82.30
2018-02-13T01:39:14.623Z,82.30
2018-02-13T01:40:08.747Z,82.20
2018-02-13T01:41:06.167Z,82.20
2018-02-13T01:42:08.927Z,82.40
2018-02-13T01:43:06.741Z,82.20
2018-02-13T01:44:10.986Z,82.30
2018-02-13T01:45:06.409Z,82.40
2018-02-13T01:46:06.165Z,82.40
2018-02-13T01:47:05.632Z,82.40
2018-02-13T01:48:09.356Z,82.40
2018-02-13T01:49:11.048Z,82.50
2018-02-13T01:50:08.935Z,82.50
2018-02-13T01:51:06.187Z,82.50
2018-02-13T01:52:05.793Z,82.50
2018-02-13T01:53:10.607Z,82.50
2018-02-13T01:54:05.956Z,82.50
2018-02-13T01:55:05.823Z,82.50
2018-02-13T01:56:06.588Z,82.60
2018-02-13T01:57:08.523Z,82.70
2018-02-13T01:58:06.609Z,82.70
2018-02-13T01:59:05.866Z,82.70
2018-02-13T02:00:06.088Z,82.70
2018-02-13T02:01:06.003Z,82.70
2018-02-13T02:02:09.274Z,82.70
2018-02-13T02:03:05.860Z,82.70
2018-02-13T02:04:06.010Z,82.70
2018-02-13T02:05:05.647Z,82.70
2018-02-13T02:06:08.681Z,82.80
2018-02-13T02:07:11.314Z,82.80
2018-02-13T02:08:05.738Z,82.80
2018-02-13T02:09:06.029Z,82.90
2018-02-13T02:10:05.687Z,82.90
2018-02-13T02:11:06.419Z,82.90
2018-02-13T02:12:08.031Z,82.90
2018-02-13T02:13:05.548Z,82.90
2018-02-13T02:14:08.903Z,83.00
2018-02-13T02:15:11.503Z,83.00
2018-02-13T02:16:10.913Z,83.00
2018-02-13T02:17:06.233Z,83.00
2018-02-13T02:18:06.118Z,83.00
2018-02-13T02:19:05.651Z,83.10
2018-02-13T02:20:08.474Z,83.10
2018-02-13T02:21:06.148Z,83.10
2018-02-13T02:22:08.333Z,83.10
2018-02-13T02:23:10.812Z,83.20
2018-02-13T02:24:11.124Z,83.10
2018-02-13T02:25:05.616Z,83.30
2018-02-13T02:26:05.923Z,83.10
2018-02-13T02:27:06.153Z,83.20
2018-02-13T02:28:05.709Z,83.30
2018-02-13T02:29:08.935Z,83.30
2018-02-13T02:30:08.932Z,83.20
2018-02-13T02:31:06.692Z,83.20
2018-02-13T02:32:06.682Z,83.20
2018-02-13T02:33:05.458Z,83.20
2018-02-13T02:34:13.800Z,83.10
2018-02-13T02:35:11.558Z,83.10
2018-02-13T02:36:11.065Z,83.10
2018-02-13T02:37:08.950Z,83.10
2018-02-13T02:38:11.542Z,83.10
2018-02-13T02:39:11.043Z,83.10
2018-02-13T02:40:10.616Z,83.10
2018-02-13T02:41:06.098Z,83.10
2018-02-13T02:42:10.180Z,83.20
2018-02-13T02:43:05.708Z,83.20
2018-02-13T02:44:06.095Z,83.20
2018-02-13T02:45:05.709Z,83.20
2018-02-13T02:46:06.098Z,83.20
2018-02-13T02:47:08.080Z,83.20
2018-02-13T02:48:06.258Z,83.20
2018-02-13T02:49:05.629Z,83.20
2018-02-13T02:50:11.302Z,83.20
2018-02-13T02:51:08.797Z,83.30
2018-02-13T02:52:06.335Z,83.30
2018-02-13T02:53:05.653Z,83.30
2018-02-13T02:54:06.354Z,83.30
2018-02-13T02:55:10.813Z,83.30
2018-02-13T02:56:06.273Z,83.40
2018-02-13T02:57:06.702Z,83.40
2018-02-13T02:58:11.095Z,83.40
2018-02-13T02:59:05.710Z,83.40
2018-02-13T03:00:05.434Z,83.40
2018-02-13T03:01:08.953Z,83.40
2018-02-13T03:02:10.159Z,83.40
2018-02-13T03:03:05.884Z,83.40
2018-02-13T03:04:06.283Z,83.40
2018-02-13T03:05:06.150Z,83.40
2018-02-13T03:06:15.405Z,83.40
2018-02-13T03:07:06.182Z,83.40
2018-02-13T03:08:05.764Z,83.40
2018-02-13T03:09:06.332Z,83.40
2018-02-13T03:10:06.072Z,83.40
2018-02-13T03:11:05.848Z,83.40
2018-02-13T03:12:11.008Z,83.50
2018-02-13T03:13:05.844Z,83.50
2018-02-13T03:14:09.013Z,83.50
2018-02-13T03:15:05.750Z,83.40
2018-02-13T03:16:06.300Z,83.50
2018-02-13T03:17:05.498Z,83.40
2018-02-13T03:18:08.945Z,83.50
2018-02-13T03:19:06.440Z,83.60
2018-02-13T03:20:08.395Z,83.60
2018-02-13T03:21:05.822Z,83.60
2018-02-13T03:22:10.687Z,83.60
2018-02-13T03:23:08.773Z,83.60
2018-02-13T03:24:05.604Z,83.60
2018-02-13T03:25:06.213Z,83.60
2018-02-13T03:26:05.709Z,83.60
2018-02-13T03:27:09.315Z,83.60
2018-02-13T03:28:05.873Z,83.60
2018-02-13T03:29:06.466Z,83.60
2018-02-13T03:30:05.774Z,83.60
2018-02-13T03:31:06.402Z,83.60
2018-02-13T03:32:05.916Z,83.60
2018-02-13T03:33:05.616Z,83.60
2018-02-13T03:34:05.651Z,83.60
2018-02-13T03:35:05.861Z,83.60
2018-02-13T03:36:09.308Z,83.60
2018-02-13T03:37:08.369Z,83.60
2018-02-13T03:38:08.894Z,83.60
2018-02-13T03:39:07.440Z,83.60
2018-02-13T03:40:05.765Z,83.60
2018-02-13T03:41:05.851Z,83.60
2018-02-13T03:42:08.841Z,83.70
2018-02-13T03:43:08.789Z,83.80
2018-02-13T03:44:06.416Z,83.70
2018-02-13T03:45:05.956Z,83.70
2018-02-13T03:46:06.272Z,83.70
2018-02-13T03:47:05.527Z,83.70
2018-02-13T03:48:05.834Z,83.70
2018-02-13T03:49:06.267Z,83.70
2018-02-13T03:50:06.518Z,83.70
2018-02-13T03:51:05.980Z,83.70
2018-02-13T03:52:05.657Z,83.70
2018-02-13T03:53:13.316Z,83.70
2018-02-13T03:54:05.946Z,83.70
2018-02-13T03:55:05.450Z,83.70
2018-02-13T03:56:05.947Z,83.70
2018-02-13T03:57:05.592Z,83.70
2018-02-13T03:58:06.104Z,83.70
2018-02-13T03:59:05.910Z,83.70
2018-02-13T04:00:06.362Z,83.70
2018-02-13T04:01:05.967Z,83.70
2018-02-13T04:02:06.358Z,83.70
2018-02-13T04:03:05.838Z,83.60
2018-02-13T04:04:06.339Z,83.60
2018-02-13T04:05:06.211Z,83.70
2018-02-13T04:06:06.273Z,83.70
2018-02-13T04:07:05.720Z,83.70
2018-02-13T04:08:08.847Z,83.70
2018-02-13T04:09:08.239Z,83.80
2018-02-13T04:10:05.952Z,83.70
2018-02-13T04:11:08.216Z,83.70
2018-02-13T04:12:11.054Z,83.70
2018-02-13T04:13:06.645Z,83.70
2018-02-13T04:14:11.325Z,83.70
2018-02-13T04:15:05.936Z,83.70
2018-02-13T04:16:08.673Z,83.70
2018-02-13T04:17:06.400Z,83.70
2018-02-13T04:18:10.914Z,83.60
2018-02-13T04:19:06.359Z,83.60
2018-02-13T04:20:08.286Z,83.80
2018-02-13T04:21:09.233Z,83.70
2018-02-13T04:22:10.782Z,83.70
2018-02-13T04:23:08.640Z,83.80
2018-02-13T04:24:11.130Z,83.80
2018-02-13T04:25:09.497Z,83.70
2018-02-13T04:26:11.039Z,83.70
2018-02-13T04:27:11.698Z,83.80
2018-02-13T04:28:08.753Z,83.70
2018-02-13T04:29:09.127Z,83.70
2018-02-13T04:30:05.940Z,83.70
2018-02-13T04:31:08.543Z,83.80
2018-02-13T04:32:06.253Z,83.80
2018-02-13T04:33:08.292Z,83.80
2018-02-13T04:34:05.648Z,83.80
2018-02-13T04:35:06.413Z,83.80
2018-02-13T04:36:11.266Z,83.90
2018-02-13T04:37:09.542Z,83.90
2018-02-13T04:38:12.513Z,83.90
2018-02-13T04:39:10.945Z,83.90
2018-02-13T04:40:06.575Z,83.90
2018-02-13T04:41:08.744Z,83.90
2018-02-13T04:42:05.552Z,83.80
2018-02-13T04:43:06.190Z,83.80
2018-02-13T04:44:05.773Z,83.80
2018-02-13T04:45:06.112Z,83.80
2018-02-13T04:46:06.715Z,83.80
2018-02-13T04:47:06.062Z,83.80
2018-02-13T04:48:06.477Z,83.80
2018-02-13T04:49:06.160Z,83.80
2018-02-13T04:50:06.461Z,83.80
2018-02-13T04:51:06.408Z,83.90
2018-02-13T04:52:05.910Z,83.80
2018-02-13T04:53:05.530Z,83.80
2018-02-13T04:54:05.860Z,83.80
2018-02-13T04:55:08.924Z,83.80
2018-02-13T04:56:06.595Z,83.80
2018-02-13T04:57:10.890Z,83.80
2018-02-13T04:58:11.378Z,83.80
2018-02-13T04:59:09.037Z,83.80
2018-02-13T05:00:05.468Z,83.80
2018-02-13T05:01:06.206Z,83.80
2018-02-13T05:02:05.510Z,83.80
2018-02-13T05:03:05.757Z,83.80
2018-02-13T05:04:05.930Z,83.80
2018-02-13T05:05:06.539Z,83.90
2018-02-13T05:06:08.464Z,83.90
2018-02-13T05:07:08.662Z,83.90
2018-02-13T05:08:06.371Z,83.80
2018-02-13T05:09:06.267Z,83.90
2018-02-13T05:10:08.076Z,83.90
2018-02-13T05:11:05.539Z,83.90
2018-02-13T05:12:06.284Z,84.00
2018-02-13T05:13:05.878Z,83.90
2018-02-13T05:14:06.709Z,84.00
2018-02-13T05:15:11.019Z,84.00
2018-02-13T05:16:08.254Z,84.00
2018-02-13T05:17:06.234Z,84.00
2018-02-13T05:18:08.272Z,84.10
2018-02-13T05:19:08.871Z,84.10
2018-02-13T05:20:06.356Z,84.10
2018-02-13T05:21:06.630Z,84.10
2018-02-13T05:22:06.206Z,84.10
2018-02-13T05:23:05.869Z,84.10
2018-02-13T05:24:06.519Z,84.10
2018-02-13T05:25:16.134Z,84.10
2018-02-13T05:26:08.202Z,84.10
2018-02-13T05:27:05.673Z,84.10
2018-02-13T05:28:11.338Z,84.10
2018-02-13T05:29:05.893Z,84.10
2018-02-13T05:30:08.216Z,84.10
2018-02-13T05:31:05.756Z,84.20
2018-02-13T05:32:08.581Z,84.20
2018-02-13T05:33:08.670Z,84.20
2018-02-13T05:34:06.171Z,84.20
2018-02-13T05:35:05.536Z,84.20
2018-02-13T05:36:06.131Z,84.20
2018-02-13T05:37:09.201Z,84.20
2018-02-13T05:38:05.964Z,84.20
2018-02-13T05:39:05.647Z,84.20
2018-02-13T05:40:08.599Z,84.20
2018-02-13T05:41:08.328Z,84.30
2018-02-13T05:42:05.881Z,84.30
2018-02-13T05:43:11.282Z,84.30
2018-02-13T05:44:06.105Z,84.30
2018-02-13T05:45:05.731Z,84.30
2018-02-13T05:46:06.093Z,84.30
2018-02-13T05:47:08.919Z,84.10
2018-02-13T05:48:06.457Z,84.10
2018-02-13T05:49:08.400Z,84.10
2018-02-13T05:50:05.917Z,84.10
2018-02-13T05:51:10.585Z,84.10
2018-02-13T05:52:09.318Z,84.10
2018-02-13T05:53:06.081Z,84.10
2018-02-13T05:54:06.413Z,84.10
2018-02-13T05:55:11.107Z,84.10
2018-02-13T05:56:06.468Z,84.10
2018-02-13T05:57:10.772Z,84.00
2018-02-13T05:58:06.007Z,83.90
2018-02-13T05:59:05.723Z,84.00
2018-02-13T06:00:06.269Z,83.90
2018-02-13T06:01:06.169Z,84.00
2018-02-13T06:02:14.362Z,83.90
2018-02-13T06:03:05.922Z,83.90
2018-02-13T06:04:13.364Z,83.90
2018-02-13T06:05:05.886Z,83.90
2018-02-13T06:06:06.563Z,83.90
2018-02-13T06:07:11.148Z,83.90
2018-02-13T06:08:06.708Z,83.90
2018-02-13T06:09:05.961Z,83.90
2018-02-13T06:10:09.029Z,83.90
2018-02-13T06:11:05.837Z,83.90
2018-02-13T06:12:10.962Z,84.00
2018-02-13T06:13:05.433Z,84.00
2018-02-13T06:14:06.001Z,83.90
2018-02-13T06:15:10.734Z,83.90
2018-02-13T06:16:08.629Z,83.90
2018-02-13T06:17:06.677Z,83.90
2018-02-13T06:18:15.639Z,84.10
2018-02-13T06:19:06.029Z,84.00
2018-02-13T06:20:06.514Z,84.00
2018-02-13T06:21:06.158Z,84.00
2018-02-13T06:22:08.152Z,83.90
2018-02-13T06:23:09.994Z,83.80
2018-02-13T06:24:05.936Z,83.80
2018-02-13T06:25:05.487Z,83.80
2018-02-13T06:26:08.641Z,83.80
2018-02-13T06:27:06.333Z,83.80
2018-02-13T06:28:09.824Z,84.00
2018-02-13T06:29:06.606Z,83.90
2018-02-13T06:30:08.438Z,84.00
2018-02-13T06:31:06.143Z,84.10
2018-02-13T06:32:11.080Z,84.10
2018-02-13T06:33:05.599Z,84.10
2018-02-13T06:34:10.987Z,84.10
2018-02-13T06:35:06.454Z,84.10
2018-02-13T06:36:05.647Z,84.10
2018-02-13T06:37:10.678Z,84.20
2018-02-13T06:38:09.619Z,84.20
2018-02-13T06:39:09.184Z,84.20
2018-02-13T06:40:08.350Z,84.20
2018-02-13T06:41:05.835Z,84.20
2018-02-13T06:42:06.107Z,84.20
2018-02-13T06:43:11.598Z,84.20
2018-02-13T06:44:08.577Z,84.20
2018-02-13T06:45:05.856Z,84.20
2018-02-13T06:46:10.645Z,84.20
2018-02-13T06:47:05.980Z,84.20
2018-02-13T06:48:09.160Z,84.20
2018-02-13T06:49:05.706Z,84.20
2018-02-13T06:50:14.032Z,84.30
2018-02-13T06:51:05.540Z,84.30
2018-02-13T06:52:08.370Z,84.20
2018-02-13T06:53:06.378Z,84.20
2018-02-13T06:54:10.615Z,84.00
2018-02-13T06:55:06.264Z,84.20
2018-02-13T06:56:05.782Z,84.10
2018-02-13T06:57:05.893Z,84.10
2018-02-13T06:58:05.983Z,84.10
2018-02-13T06:59:06.808Z,84.20
2018-02-13T07:00:06.430Z,84.10
2018-02-13T07:01:06.055Z,84.10
2018-02-13T07:02:06.342Z,84.10
2018-02-13T07:03:05.597Z,84.10
2018-02-13T07:04:15.865Z,84.10
2018-02-13T07:05:11.373Z,84.10
2018-02-13T07:06:05.786Z,84.10
2018-02-13T07:07:06.128Z,84.10
2018-02-13T07:08:06.014Z,84.10
2018-02-13T07:09:09.619Z,84.20
2018-02-13T07:10:06.209Z,83.30
2018-02-13T07:11:06.421Z,84.20
2018-02-13T07:12:08.538Z,84.20
2018-02-13T07:13:06.026Z,84.10
2018-02-13T07:14:11.026Z,84.20
2018-02-13T07:15:13.145Z,84.20
2018-02-13T07:16:05.598Z,84.20
2018-02-13T07:17:06.507Z,84.20
2018-02-13T07:18:14.292Z,84.40
2018-02-13T07:19:08.314Z,84.70
2018-02-13T07:20:07.977Z,84.80
2018-02-13T07:21:14.031Z,84.90
2018-02-13T07:22:05.639Z,84.90
2018-02-13T07:23:05.792Z,84.90
2018-02-13T07:24:06.085Z,84.70
2018-02-13T07:25:08.409Z,84.60
2018-02-13T07:26:08.428Z,84.60
2018-02-13T07:27:09.187Z,84.10
2018-02-13T07:28:05.683Z,84.10
2018-02-13T07:29:06.081Z,83.70
2018-02-13T07:30:06.189Z,83.60
2018-02-13T07:31:05.790Z,83.80
2018-02-13T07:32:11.453Z,84.10
2018-02-13T07:33:05.958Z,84.10
2018-02-13T07:34:05.529Z,84.00
2018-02-13T07:35:05.793Z,83.90
2018-02-13T07:36:06.016Z,83.80
2018-02-13T07:37:08.228Z,83.60
2018-02-13T07:38:05.999Z,83.60
2018-02-13T07:39:08.605Z,83.70
2018-02-13T07:40:06.104Z,83.70
2018-02-13T07:41:06.637Z,83.70
2018-02-13T07:42:05.524Z,83.70
2018-02-13T07:48:05.550Z,82.80
2018-02-13T07:49:11.509Z,82.70
2018-02-13T07:50:08.255Z,82.80
2018-02-13T07:51:05.733Z,82.80
2018-02-13T07:52:11.051Z,82.80
2018-02-13T07:53:10.589Z,82.80
2018-02-13T07:54:06.471Z,82.80
2018-02-13T07:55:06.385Z,82.80
2018-02-13T07:56:06.290Z,82.50
2018-02-13T07:57:05.980Z,82.30
2018-02-13T07:58:05.746Z,82.40
2018-02-13T07:59:06.517Z,82.60
2018-02-13T08:00:06.421Z,82.60
2018-02-13T08:01:05.980Z,82.70
2018-02-13T08:02:14.372Z,81.90
2018-02-13T08:03:11.078Z,81.60
2018-02-13T08:04:10.737Z,81.30
2018-02-13T08:05:09.550Z,81.30
2018-02-13T08:06:09.047Z,81.30
2018-02-13T08:07:05.600Z,81.30
2018-02-13T08:08:08.836Z,81.50
2018-02-13T08:09:11.478Z,81.60
2018-02-13T08:10:08.134Z,81.70
2018-02-13T08:11:10.692Z,81.50
2018-02-13T08:12:05.970Z,81.50
2018-02-13T08:13:06.200Z,81.40
2018-02-13T08:14:05.619Z,81.40
2018-02-13T08:15:06.474Z,81.20
2018-02-13T08:16:11.398Z,80.80
2018-02-13T08:17:08.490Z,80.90
2018-02-13T08:18:11.029Z,80.90
2018-02-13T08:19:05.811Z,80.90
2018-02-13T08:20:06.521Z,80.80
2018-02-13T08:21:09.408Z,80.60
2018-02-13T08:22:06.139Z,80.60
2018-02-13T08:23:06.153Z,80.50
2018-02-13T08:24:06.289Z,80.40
2018-02-13T08:25:09.024Z,80.10
2018-02-13T08:26:05.464Z,80.10
2018-02-13T08:27:08.677Z,80.10
2018-02-13T08:28:06.376Z,80.00
2018-02-13T08:29:06.009Z,79.90
2018-02-13T08:30:06.589Z,79.50
2018-02-13T08:31:06.213Z,79.30
2018-02-13T08:32:09.076Z,79.40
2018-02-13T08:33:05.527Z,79.40
2018-02-13T08:34:05.769Z,79.40
2018-02-13T08:35:11.440Z,79.30
2018-02-13T08:36:05.693Z,79.20
2018-02-13T08:37:06.144Z,78.90
2018-02-13T08:38:06.451Z,78.70
2018-02-13T08:39:08.346Z,78.70
2018-02-13T08:40:05.837Z,78.50
2018-02-13T08:41:05.577Z,78.60
2018-02-13T08:42:06.319Z,78.70
2018-02-13T08:43:10.659Z,78.80
2018-02-13T08:44:06.097Z,78.80
2018-02-13T08:45:10.628Z,78.80
2018-02-13T08:46:06.348Z,78.80
2018-02-13T08:47:11.069Z,78.70
2018-02-13T08:48:06.562Z,78.60
2018-02-13T08:49:08.654Z,78.40
2018-02-13T08:50:06.182Z,78.40
2018-02-13T08:51:08.396Z,77.80
2018-02-13T08:52:08.915Z,77.70
2018-02-13T08:53:08.940Z,77.30
2018-02-13T08:54:08.016Z,77.40
2018-02-13T08:55:08.307Z,77.20
2018-02-13T08:56:05.883Z,77.20
2018-02-13T08:57:06.533Z,76.80
2018-02-13T08:58:05.857Z,76.80
2018-02-13T08:59:06.299Z,76.60
2018-02-13T09:00:08.599Z,76.70
2018-02-13T09:01:11.175Z,76.60
2018-02-13T09:02:05.636Z,76.80
2018-02-13T09:03:06.133Z,76.80
2018-02-13T09:04:06.515Z,76.30
2018-02-13T09:05:11.128Z,75.50
2018-02-13T09:06:06.471Z,75.50
2018-02-13T09:07:10.835Z,75.30
2018-02-13T09:08:06.238Z,75.60
2018-02-13T09:09:06.205Z,75.80
2018-02-13T09:10:06.428Z,75.80
2018-02-13T09:11:07.119Z,75.80
2018-02-13T09:12:06.161Z,75.40
2018-02-13T09:13:06.122Z,75.40
2018-02-13T09:14:06.078Z,75.50
2018-02-13T09:15:06.726Z,75.30
2018-02-13T09:16:05.678Z,75.30
2018-02-13T09:17:06.067Z,75.30
2018-02-13T09:18:06.515Z,74.20
2018-02-13T09:19:06.218Z,74.20
2018-02-13T09:20:15.766Z,74.50
2018-02-13T09:21:06.475Z,74.50
2018-02-13T09:22:08.424Z,74.70
2018-02-13T09:23:09.411Z,74.50
2018-02-13T09:24:09.219Z,74.30
2018-02-13T09:25:05.919Z,74.30
2018-02-13T09:26:09.354Z,74.30
2018-02-13T09:27:09.151Z,74.40
2018-02-13T09:28:05.869Z,74.30
2018-02-13T09:29:08.447Z,74.10
2018-02-13T09:30:08.629Z,73.90
2018-02-13T09:31:06.482Z,73.90
2018-02-13T09:32:06.505Z,73.80
2018-02-13T09:33:08.677Z,73.80
2018-02-13T09:34:09.396Z,73.90
2018-02-13T09:35:05.931Z,73.80
2018-02-13T09:36:10.700Z,73.80
2018-02-13T09:37:05.823Z,73.90
2018-02-13T09:38:13.171Z,73.70
2018-02-13T09:39:05.924Z,73.70
2018-02-13T09:40:05.581Z,73.90
2018-02-13T09:41:13.921Z,73.40
2018-02-13T09:42:06.415Z,73.40
2018-02-13T09:43:11.137Z,72.50
2018-02-13T09:44:05.993Z,72.50
2018-02-13T09:45:08.254Z,72.60
2018-02-13T09:46:06.170Z,72.50
2018-02-13T09:47:06.487Z,72.60
2018-02-13T09:48:11.058Z,72.10
2018-02-13T09:49:09.263Z,71.80
2018-02-13T09:50:05.791Z,71.80
2018-02-13T09:51:07.995Z,71.50
2018-02-13T09:52:08.009Z,71.50
2018-02-13T09:53:06.479Z,71.50
2018-02-13T09:54:06.174Z,71.30
2018-02-13T09:55:05.700Z,71.30
2018-02-13T09:56:05.912Z,71.60
2018-02-13T09:57:06.374Z,71.80
2018-02-13T09:58:05.665Z,71.50
2018-02-13T09:59:06.414Z,71.70
2018-02-13T10:00:05.868Z,71.70
2018-02-13T10:01:06.139Z,71.80
2018-02-13T10:02:05.807Z,71.60
2018-02-13T10:03:11.385Z,71.80
2018-02-13T10:04:05.640Z,71.80
2018-02-13T10:05:11.023Z,71.50
2018-02-13T10:06:06.285Z,71.50
2018-02-13T10:07:06.366Z,71.40
2018-02-13T10:08:13.705Z,71.50
2018-02-13T10:09:10.491Z,71.60
2018-02-13T10:10:06.654Z,71.60
2018-02-13T10:11:07.283Z,71.70
2018-02-13T10:12:07.483Z,71.80
2018-02-13T10:13:08.880Z,71.70
2018-02-13T10:14:06.532Z,71.70
2018-02-13T10:15:09.056Z,71.90
2018-02-13T10:16:08.614Z,71.50
2018-02-13T10:17:09.697Z,71.50
2018-02-13T10:18:11.209Z,71.50
2018-02-13T10:19:06.521Z,71.60
2018-02-13T10:20:05.858Z,71.70
2018-02-13T10:21:08.795Z,71.90
2018-02-13T10:22:06.395Z,71.90
2018-02-13T10:23:05.814Z,71.60
2018-02-13T10:24:12.284Z,71.10
2018-02-13T10:25:06.353Z,71.10
2018-02-13T10:26:06.012Z,71.00
2018-02-13T10:27:05.661Z,70.70
2018-02-13T10:28:05.874Z,70.60
2018-02-13T10:29:08.868Z,70.90
2018-02-13T10:30:05.677Z,70.90
2018-02-13T10:31:09.075Z,71.20
2018-02-13T10:32:05.763Z,71.20
2018-02-13T10:33:06.218Z,70.70
2018-02-13T10:34:06.463Z,70.40
2018-02-13T10:35:08.198Z,70.50
2018-02-13T10:36:11.438Z,70.50
2018-02-13T10:37:05.849Z,70.70
2018-02-13T10:38:09.122Z,71.00
2018-02-13T10:39:05.649Z,71.00
2018-02-13T10:40:08.382Z,70.20
2018-02-13T10:41:10.930Z,70.20
2018-02-13T10:42:06.420Z,70.10
2018-02-13T10:43:09.164Z,69.70
2018-02-13T10:44:05.922Z,69.80
2018-02-13T10:45:06.371Z,70.10
2018-02-13T10:46:11.149Z,70.40
2018-02-13T10:47:11.370Z,70.30
2018-02-13T10:48:05.637Z,70.30
2018-02-13T10:49:08.695Z,70.10
2018-02-13T10:50:10.109Z,69.80
2018-02-13T10:51:10.860Z,69.70
2018-02-13T10:52:06.253Z,69.70
2018-02-13T10:53:11.290Z,69.80
2018-02-13T10:54:13.841Z,69.70
2018-02-13T10:55:06.597Z,69.70
2018-02-13T10:56:11.085Z,69.30
2018-02-13T10:57:05.792Z,69.30
2018-02-13T10:58:06.525Z,69.50
2018-02-13T10:59:06.269Z,69.60
2018-02-13T11:00:05.694Z,69.60
2018-02-13T11:01:06.234Z,69.50
2018-02-13T11:02:09.026Z,68.80
2018-02-13T11:03:05.597Z,68.70
2018-02-13T11:04:06.247Z,68.60
2018-02-13T11:05:11.087Z,68.80
2018-02-13T11:06:11.339Z,68.80
2018-02-13T11:07:10.753Z,68.70
2018-02-13T11:08:08.481Z,68.00
2018-02-13T11:09:08.569Z,67.10
2018-02-13T11:10:11.036Z,66.50
2018-02-13T11:11:06.373Z,66.50
2018-02-13T11:12:10.766Z,66.20
2018-02-13T11:13:06.280Z,66.10
2018-02-13T11:14:05.762Z,66.40
2018-02-13T11:15:06.168Z,66.70
2018-02-13T11:16:10.733Z,66.90
2018-02-13T11:17:08.848Z,67.30
2018-02-13T11:18:06.521Z,67.20
2018-02-13T11:19:08.559Z,67.10
2018-02-13T11:20:08.560Z,67.20
2018-02-13T11:21:06.406Z,67.30
2018-02-13T11:22:06.134Z,67.60
2018-02-13T11:23:05.604Z,67.60
2018-02-13T11:24:06.701Z,67.60
2018-02-13T11:25:11.366Z,67.60
2018-02-13T11:26:10.785Z,67.50
2018-02-13T11:27:11.062Z,66.70
2018-02-13T11:28:10.693Z,66.70
2018-02-13T11:29:06.145Z,66.60
2018-02-13T11:30:05.912Z,65.90
2018-02-13T11:31:05.824Z,65.90
2018-02-13T11:32:09.924Z,65.90
2018-02-13T11:33:08.559Z,65.80
2018-02-13T11:34:09.197Z,65.70
2018-02-13T11:35:13.326Z,65.40
2018-02-13T11:36:05.891Z,65.40
2018-02-13T11:37:09.275Z,65.30
2018-02-13T11:38:10.744Z,65.40
2018-02-13T11:39:05.937Z,65.30
2018-02-13T11:40:05.674Z,64.80
2018-02-13T11:41:11.715Z,64.30
2018-02-13T11:42:06.275Z,63.70
2018-02-13T11:43:05.852Z,63.60
2018-02-13T11:44:05.782Z,63.50
2018-02-13T11:45:06.390Z,63.60
2018-02-13T11:46:10.946Z,63.80
2018-02-13T11:47:06.426Z,63.80
2018-02-13T11:48:11.048Z,63.40
2018-02-13T11:49:05.927Z,63.40
2018-02-13T11:50:06.519Z,63.20
2018-02-13T11:51:06.324Z,63.30
2018-02-13T11:52:05.908Z,63.20
2018-02-13T11:53:08.934Z,63.40
2018-02-13T11:54:06.484Z,63.40
2018-02-13T11:55:10.916Z,62.80
2018-02-13T11:56:06.257Z,62.60
2018-02-13T11:57:06.229Z,63.10
2018-02-13T11:58:05.582Z,63.00
2018-02-13T11:59:06.070Z,62.80
2018-02-13T12:00:06.326Z,61.90
2018-02-13T12:01:06.117Z,62.00
2018-02-13T12:02:05.804Z,61.80
2018-02-13T12:03:06.133Z,61.60
2018-02-13T12:04:08.642Z,61.30
2018-02-13T12:05:06.148Z,61.30
2018-02-13T12:06:05.688Z,60.90
2018-02-13T12:07:06.365Z,59.80
2018-02-13T12:08:06.109Z,59.20
2018-02-13T12:09:10.497Z,59.20
2018-02-13T12:10:06.351Z,52.40
2018-02-13T12:11:06.002Z,58.70
2018-02-13T12:12:10.746Z,58.30
2018-02-13T12:13:08.473Z,59.00
2018-02-13T12:14:05.981Z,59.00
2018-02-13T12:15:05.450Z,58.80
2018-02-13T12:16:06.059Z,58.90
2018-02-13T12:17:05.928Z,58.60
2018-02-13T12:18:08.988Z,58.70
2018-02-13T12:19:05.546Z,58.70
2018-02-13T12:20:06.428Z,58.30
2018-02-13T12:21:06.104Z,58.50
2018-02-13T12:22:06.917Z,58.60
2018-02-13T12:23:06.483Z,58.60
2018-02-13T12:24:06.148Z,58.70
2018-02-13T12:25:06.164Z,58.90
2018-02-13T12:26:05.967Z,58.40
2018-02-13T12:27:06.497Z,58.30
2018-02-13T12:28:05.765Z,57.50
2018-02-13T12:29:07.140Z,57.70
2018-02-13T12:30:10.705Z,57.80
2018-02-13T12:31:11.209Z,57.90
2018-02-13T12:32:05.786Z,51.50
2018-02-13T12:33:09.047Z,58.00
2018-02-13T12:34:05.606Z,58.00
2018-02-13T12:35:06.355Z,57.70
2018-02-13T12:36:06.191Z,57.60
2018-02-13T12:37:11.450Z,56.80
2018-02-13T12:38:11.247Z,56.80
2018-02-13T12:39:05.824Z,56.90
2018-02-13T12:40:05.984Z,56.60
2018-02-13T12:41:08.929Z,56.60
2018-02-13T12:42:06.363Z,56.50
2018-02-13T12:43:06.152Z,56.50
2018-02-13T12:44:05.732Z,56.40
2018-02-13T12:45:08.292Z,55.50
2018-02-13T12:46:06.068Z,55.50
2018-02-13T12:47:08.908Z,55.50
2018-02-13T12:48:11.984Z,55.50
2018-02-13T12:49:11.538Z,55.70
2018-02-13T12:50:07.004Z,55.70
2018-02-13T12:51:05.773Z,55.50
2018-02-13T12:52:06.126Z,55.00
2018-02-13T12:53:08.205Z,54.70
2018-02-13T12:54:06.115Z,54.80
2018-02-13T12:55:05.691Z,54.40
2018-02-13T12:56:09.120Z,54.60
2018-02-13T12:57:05.740Z,54.60